sensor_id;sensor_type;location;lat;lon;timestamp;P1;durP1;ratioP1;P2;durP2;ratioP2
15071;SDS011;7635;56.696;13.002;2023-02-28T00:02:19;1.47;;;1.27;;
15071;SDS011;7635;56.696;13.002;2023-02-28T00:04:46;1.60;;;1.50;;
15071;SDS011;7635;56.696;13.002;2023-02-28T00:07:27;2.27;;;1.80;;
15071;SDS011;7635;56.696;13.002;2023-02-28T00:09:54;2.03;;;1.60;;
15071;SDS011;7635;56.696;13.002;2023-02-28T00:12:20;1.53;;;1.43;;
15071;SDS011;7635;56.696;13.002;2023-02-28T00:14:47;1.50;;;1.40;;
15071;SDS011;7635;56.696;13.002;2023-02-28T00:17:14;1.37;;;1.27;;
15071;SDS011;7635;56.696;13.002;2023-02-28T00:19:42;1.50;;;1.40;;
15071;SDS011;7635;56.696;13.002;2023-02-28T00:22:09;1.77;;;1.47;;
15071;SDS011;7635;56.696;13.002;2023-02-28T00:24:37;1.50;;;1.40;;
15071;SDS011;7635;56.696;13.002;2023-02-28T00:27:04;2.43;;;1.67;;
15071;SDS011;7635;56.696;13.002;2023-02-28T00:29:31;1.00;;;1.00;;
15071;SDS011;7635;56.696;13.002;2023-02-28T00:31:58;1.80;;;1.50;;
15071;SDS011;7635;56.696;13.002;2023-02-28T00:34:24;1.90;;;1.57;;
15071;SDS011;7635;56.696;13.002;2023-02-28T00:36:51;1.60;;;1.50;;
15071;SDS011;7635;56.696;13.002;2023-02-28T00:39:18;1.30;;;1.20;;
15071;SDS011;7635;56.696;13.002;2023-02-28T00:41:46;1.10;;;1.10;;
15071;SDS011;7635;56.696;13.002;2023-02-28T00:44:12;1.37;;;1.20;;
15071;SDS011;7635;56.696;13.002;2023-02-28T00:46:39;1.60;;;1.50;;
15071;SDS011;7635;56.696;13.002;2023-02-28T00:49:06;2.40;;;1.53;;
15071;SDS011;7635;56.696;13.002;2023-02-28T00:51:32;1.60;;;1.50;;
15071;SDS011;7635;56.696;13.002;2023-02-28T00:53:59;1.47;;;1.30;;
15071;SDS011;7635;56.696;13.002;2023-02-28T00:56:26;1.67;;;1.50;;
15071;SDS011;7635;56.696;13.002;2023-02-28T00:58:54;1.37;;;1.27;;
15071;SDS011;7635;56.696;13.002;2023-02-28T01:01:20;1.93;;;1.40;;
15071;SDS011;7635;56.696;13.002;2023-02-28T01:03:47;1.37;;;1.33;;
15071;SDS011;7635;56.696;13.002;2023-02-28T01:06:14;1.50;;;1.40;;
15071;SDS011;7635;56.696;13.002;2023-02-28T01:08:40;1.73;;;1.50;;
15071;SDS011;7635;56.696;13.002;2023-02-28T01:11:08;3.10;;;1.40;;
15071;SDS011;7635;56.696;13.002;2023-02-28T01:13:36;1.87;;;1.50;;
15071;SDS011;7635;56.696;13.002;2023-02-28T01:16:04;1.60;;;1.40;;
15071;SDS011;7635;56.696;13.002;2023-02-28T01:18:32;1.73;;;1.37;;
15071;SDS011;7635;56.696;13.002;2023-02-28T01:21:02;2.73;;;1.53;;
15071;SDS011;7635;56.696;13.002;2023-02-28T01:23:29;2.00;;;1.90;;
15071;SDS011;7635;56.696;13.002;2023-02-28T01:25:56;1.40;;;1.30;;
15071;SDS011;7635;56.696;13.002;2023-02-28T01:28:22;3.27;;;1.70;;
15071;SDS011;7635;56.696;13.002;2023-02-28T01:30:49;2.03;;;1.63;;
15071;SDS011;7635;56.696;13.002;2023-02-28T01:33:18;3.77;;;2.23;;
15071;SDS011;7635;56.696;13.002;2023-02-28T01:35:45;3.50;;;1.93;;
15071;SDS011;7635;56.696;13.002;2023-02-28T01:38:11;3.90;;;1.67;;
15071;SDS011;7635;56.696;13.002;2023-02-28T01:40:38;2.40;;;1.93;;
15071;SDS011;7635;56.696;13.002;2023-02-28T01:43:07;2.10;;;1.90;;
15071;SDS011;7635;56.696;13.002;2023-02-28T01:45:43;3.67;;;1.70;;
15071;SDS011;7635;56.696;13.002;2023-02-28T01:48:09;1.53;;;1.33;;
15071;SDS011;7635;56.696;13.002;2023-02-28T01:50:41;3.87;;;1.70;;
15071;SDS011;7635;56.696;13.002;2023-02-28T01:53:10;2.17;;;1.77;;
15071;SDS011;7635;56.696;13.002;2023-02-28T01:55:40;1.90;;;1.70;;
15071;SDS011;7635;56.696;13.002;2023-02-28T01:58:11;1.77;;;1.63;;
15071;SDS011;7635;56.696;13.002;2023-02-28T02:00:38;2.27;;;1.60;;
15071;SDS011;7635;56.696;13.002;2023-02-28T02:03:08;2.30;;;1.77;;
15071;SDS011;7635;56.696;13.002;2023-02-28T02:05:37;1.97;;;1.70;;
15071;SDS011;7635;56.696;13.002;2023-02-28T02:08:06;1.63;;;1.50;;
15071;SDS011;7635;56.696;13.002;2023-02-28T02:10:36;1.83;;;1.57;;
15071;SDS011;7635;56.696;13.002;2023-02-28T02:16:00;1.67;;;1.57;;
15071;SDS011;7635;56.696;13.002;2023-02-28T02:18:36;2.40;;;1.67;;
15071;SDS011;7635;56.696;13.002;2023-02-28T02:21:17;1.70;;;1.60;;
15071;SDS011;7635;56.696;13.002;2023-02-28T02:27:05;1.60;;;1.50;;
15071;SDS011;7635;56.696;13.002;2023-02-28T02:29:55;2.33;;;1.67;;
15071;SDS011;7635;56.696;13.002;2023-02-28T02:35:55;1.90;;;1.50;;
15071;SDS011;7635;56.696;13.002;2023-02-28T02:38:29;2.00;;;1.60;;
15071;SDS011;7635;56.696;13.002;2023-02-28T02:41:03;1.77;;;1.63;;
15071;SDS011;7635;56.696;13.002;2023-02-28T02:43:36;2.30;;;1.83;;
15071;SDS011;7635;56.696;13.002;2023-02-28T02:46:11;2.03;;;1.60;;
15071;SDS011;7635;56.696;13.002;2023-02-28T02:48:42;1.67;;;1.43;;
15071;SDS011;7635;56.696;13.002;2023-02-28T02:51:13;2.07;;;1.87;;
15071;SDS011;7635;56.696;13.002;2023-02-28T02:53:44;1.70;;;1.60;;
15071;SDS011;7635;56.696;13.002;2023-02-28T02:56:15;1.77;;;1.50;;
15071;SDS011;7635;56.696;13.002;2023-02-28T02:58:44;3.07;;;1.70;;
15071;SDS011;7635;56.696;13.002;2023-02-28T03:01:14;3.00;;;1.70;;
15071;SDS011;7635;56.696;13.002;2023-02-28T03:03:52;1.60;;;1.50;;
15071;SDS011;7635;56.696;13.002;2023-02-28T03:06:21;1.37;;;1.27;;
15071;SDS011;7635;56.696;13.002;2023-02-28T03:08:48;1.47;;;1.37;;
15071;SDS011;7635;56.696;13.002;2023-02-28T03:11:15;1.33;;;1.23;;
15071;SDS011;7635;56.696;13.002;2023-02-28T03:13:44;1.87;;;1.60;;
15071;SDS011;7635;56.696;13.002;2023-02-28T03:16:42;2.20;;;1.73;;
15071;SDS011;7635;56.696;13.002;2023-02-28T03:19:43;3.30;;;2.33;;
15071;SDS011;7635;56.696;13.002;2023-02-28T03:22:17;2.70;;;1.90;;
15071;SDS011;7635;56.696;13.002;2023-02-28T03:25:00;2.80;;;2.07;;
15071;SDS011;7635;56.696;13.002;2023-02-28T03:27:34;4.73;;;2.37;;
15071;SDS011;7635;56.696;13.002;2023-02-28T03:30:09;4.70;;;2.37;;
15071;SDS011;7635;56.696;13.002;2023-02-28T03:32:40;5.47;;;2.60;;
15071;SDS011;7635;56.696;13.002;2023-02-28T03:35:16;4.60;;;2.73;;
15071;SDS011;7635;56.696;13.002;2023-02-28T03:37:49;4.17;;;2.77;;
15071;SDS011;7635;56.696;13.002;2023-02-28T03:40:19;5.87;;;2.80;;
15071;SDS011;7635;56.696;13.002;2023-02-28T03:42:49;4.30;;;2.47;;
15071;SDS011;7635;56.696;13.002;2023-02-28T03:45:22;3.87;;;1.90;;
15071;SDS011;7635;56.696;13.002;2023-02-28T03:47:53;3.07;;;2.23;;
15071;SDS011;7635;56.696;13.002;2023-02-28T03:50:22;6.27;;;2.83;;
15071;SDS011;7635;56.696;13.002;2023-02-28T03:52:55;3.67;;;2.50;;
15071;SDS011;7635;56.696;13.002;2023-02-28T03:55:27;3.93;;;2.27;;
15071;SDS011;7635;56.696;13.002;2023-02-28T03:57:56;3.60;;;2.37;;
15071;SDS011;7635;56.696;13.002;2023-02-28T04:00:28;2.83;;;2.17;;
15071;SDS011;7635;56.696;13.002;2023-02-28T04:02:59;5.97;;;2.63;;
15071;SDS011;7635;56.696;13.002;2023-02-28T04:05:26;2.90;;;2.13;;
15071;SDS011;7635;56.696;13.002;2023-02-28T04:07:55;4.33;;;2.53;;
15071;SDS011;7635;56.696;13.002;2023-02-28T04:10:30;3.70;;;2.43;;
15071;SDS011;7635;56.696;13.002;2023-02-28T04:12:56;4.77;;;2.53;;
15071;SDS011;7635;56.696;13.002;2023-02-28T04:15:23;3.40;;;2.10;;
15071;SDS011;7635;56.696;13.002;2023-02-28T04:17:52;2.73;;;2.40;;
15071;SDS011;7635;56.696;13.002;2023-02-28T04:20:19;2.37;;;1.93;;
15071;SDS011;7635;56.696;13.002;2023-02-28T04:22:45;4.40;;;2.43;;
15071;SDS011;7635;56.696;13.002;2023-02-28T04:25:13;3.30;;;2.30;;
15071;SDS011;7635;56.696;13.002;2023-02-28T04:27:40;3.17;;;2.40;;
15071;SDS011;7635;56.696;13.002;2023-02-28T04:30:09;3.93;;;2.40;;
15071;SDS011;7635;56.696;13.002;2023-02-28T04:32:37;4.80;;;3.03;;
15071;SDS011;7635;56.696;13.002;2023-02-28T04:35:04;3.37;;;2.30;;
15071;SDS011;7635;56.696;13.002;2023-02-28T04:37:31;3.97;;;2.50;;
15071;SDS011;7635;56.696;13.002;2023-02-28T04:39:59;4.33;;;2.83;;
15071;SDS011;7635;56.696;13.002;2023-02-28T04:42:27;3.90;;;2.43;;
15071;SDS011;7635;56.696;13.002;2023-02-28T04:45:00;4.23;;;2.80;;
15071;SDS011;7635;56.696;13.002;2023-02-28T04:47:26;5.03;;;2.83;;
15071;SDS011;7635;56.696;13.002;2023-02-28T04:49:53;4.07;;;2.53;;
15071;SDS011;7635;56.696;13.002;2023-02-28T04:52:20;5.33;;;2.93;;
15071;SDS011;7635;56.696;13.002;2023-02-28T04:54:46;4.90;;;2.60;;
15071;SDS011;7635;56.696;13.002;2023-02-28T04:57:13;5.83;;;3.23;;
15071;SDS011;7635;56.696;13.002;2023-02-28T04:59:41;4.67;;;2.60;;
15071;SDS011;7635;56.696;13.002;2023-02-28T05:02:08;3.37;;;2.40;;
15071;SDS011;7635;56.696;13.002;2023-02-28T05:04:34;3.97;;;2.70;;
15071;SDS011;7635;56.696;13.002;2023-02-28T05:07:02;3.37;;;2.40;;
15071;SDS011;7635;56.696;13.002;2023-02-28T05:09:29;5.00;;;2.47;;
15071;SDS011;7635;56.696;13.002;2023-02-28T05:11:56;3.20;;;2.23;;
15071;SDS011;7635;56.696;13.002;2023-02-28T05:14:23;3.83;;;2.50;;
15071;SDS011;7635;56.696;13.002;2023-02-28T05:16:51;2.50;;;2.30;;
15071;SDS011;7635;56.696;13.002;2023-02-28T05:19:18;3.40;;;2.37;;
15071;SDS011;7635;56.696;13.002;2023-02-28T05:21:49;3.80;;;2.67;;
15071;SDS011;7635;56.696;13.002;2023-02-28T05:24:17;4.03;;;2.60;;
15071;SDS011;7635;56.696;13.002;2023-02-28T05:26:47;4.60;;;2.50;;
15071;SDS011;7635;56.696;13.002;2023-02-28T05:29:15;3.37;;;2.40;;
15071;SDS011;7635;56.696;13.002;2023-02-28T05:31:42;5.13;;;2.83;;
15071;SDS011;7635;56.696;13.002;2023-02-28T05:34:10;2.70;;;2.30;;
15071;SDS011;7635;56.696;13.002;2023-02-28T05:36:37;3.53;;;2.57;;
15071;SDS011;7635;56.696;13.002;2023-02-28T05:39:05;2.60;;;2.27;;
15071;SDS011;7635;56.696;13.002;2023-02-28T05:41:37;4.37;;;2.67;;
15071;SDS011;7635;56.696;13.002;2023-02-28T05:44:05;5.57;;;3.10;;
15071;SDS011;7635;56.696;13.002;2023-02-28T05:46:31;3.33;;;2.37;;
15071;SDS011;7635;56.696;13.002;2023-02-28T05:48:58;3.17;;;2.47;;
15071;SDS011;7635;56.696;13.002;2023-02-28T05:51:27;2.80;;;2.27;;
15071;SDS011;7635;56.696;13.002;2023-02-28T05:53:53;4.20;;;2.63;;
15071;SDS011;7635;56.696;13.002;2023-02-28T05:56:21;2.90;;;2.63;;
15071;SDS011;7635;56.696;13.002;2023-02-28T05:58:48;2.20;;;1.97;;
15071;SDS011;7635;56.696;13.002;2023-02-28T06:01:25;2.97;;;2.30;;
15071;SDS011;7635;56.696;13.002;2023-02-28T06:03:58;3.40;;;2.67;;
15071;SDS011;7635;56.696;13.002;2023-02-28T06:06:27;2.93;;;2.50;;
15071;SDS011;7635;56.696;13.002;2023-02-28T06:08:55;3.30;;;2.50;;
15071;SDS011;7635;56.696;13.002;2023-02-28T06:11:22;2.73;;;2.37;;
15071;SDS011;7635;56.696;13.002;2023-02-28T06:13:52;2.27;;;2.07;;
15071;SDS011;7635;56.696;13.002;2023-02-28T06:16:19;2.57;;;2.13;;
15071;SDS011;7635;56.696;13.002;2023-02-28T06:18:46;2.53;;;2.33;;
15071;SDS011;7635;56.696;13.002;2023-02-28T06:21:13;3.97;;;2.70;;
15071;SDS011;7635;56.696;13.002;2023-02-28T06:23:41;3.50;;;2.27;;
15071;SDS011;7635;56.696;13.002;2023-02-28T06:26:07;4.20;;;2.30;;
15071;SDS011;7635;56.696;13.002;2023-02-28T06:28:35;2.63;;;2.03;;
15071;SDS011;7635;56.696;13.002;2023-02-28T06:31:07;4.93;;;2.47;;
15071;SDS011;7635;56.696;13.002;2023-02-28T06:33:34;5.03;;;2.50;;
15071;SDS011;7635;56.696;13.002;2023-02-28T06:36:00;3.97;;;2.53;;
15071;SDS011;7635;56.696;13.002;2023-02-28T06:38:27;2.23;;;2.03;;
15071;SDS011;7635;56.696;13.002;2023-02-28T06:40:55;3.13;;;2.37;;
15071;SDS011;7635;56.696;13.002;2023-02-28T06:43:23;2.40;;;2.00;;
15071;SDS011;7635;56.696;13.002;2023-02-28T06:45:53;3.50;;;1.97;;
15071;SDS011;7635;56.696;13.002;2023-02-28T06:48:20;3.80;;;2.23;;
15071;SDS011;7635;56.696;13.002;2023-02-28T06:50:47;3.60;;;2.23;;
15071;SDS011;7635;56.696;13.002;2023-02-28T06:53:14;4.80;;;2.47;;
15071;SDS011;7635;56.696;13.002;2023-02-28T06:55:40;2.83;;;2.10;;
15071;SDS011;7635;56.696;13.002;2023-02-28T06:58:08;4.20;;;2.43;;
15071;SDS011;7635;56.696;13.002;2023-02-28T07:00:40;3.67;;;2.10;;
15071;SDS011;7635;56.696;13.002;2023-02-28T07:03:07;4.80;;;2.27;;
15071;SDS011;7635;56.696;13.002;2023-02-28T07:05:34;2.63;;;2.00;;
15071;SDS011;7635;56.696;13.002;2023-02-28T07:08:01;3.30;;;1.87;;
15071;SDS011;7635;56.696;13.002;2023-02-28T07:10:29;2.20;;;1.90;;
15071;SDS011;7635;56.696;13.002;2023-02-28T07:12:55;2.10;;;1.90;;
15071;SDS011;7635;56.696;13.002;2023-02-28T07:15:23;1.93;;;1.67;;
15071;SDS011;7635;56.696;13.002;2023-02-28T07:17:50;2.43;;;1.90;;
15071;SDS011;7635;56.696;13.002;2023-02-28T07:20:17;2.37;;;1.87;;
15071;SDS011;7635;56.696;13.002;2023-02-28T07:22:44;4.17;;;2.20;;
15071;SDS011;7635;56.696;13.002;2023-02-28T07:25:10;2.90;;;2.30;;
15071;SDS011;7635;56.696;13.002;2023-02-28T07:27:37;2.70;;;2.20;;
15071;SDS011;7635;56.696;13.002;2023-02-28T07:30:04;1.47;;;1.37;;
15071;SDS011;7635;56.696;13.002;2023-02-28T07:32:33;2.47;;;1.90;;
15071;SDS011;7635;56.696;13.002;2023-02-28T07:35:02;2.27;;;1.70;;
15071;SDS011;7635;56.696;13.002;2023-02-28T07:37:29;2.20;;;2.00;;
15071;SDS011;7635;56.696;13.002;2023-02-28T07:40:01;2.23;;;1.80;;
15071;SDS011;7635;56.696;13.002;2023-02-28T07:42:31;2.43;;;2.00;;
15071;SDS011;7635;56.696;13.002;2023-02-28T07:44:58;3.60;;;1.97;;
15071;SDS011;7635;56.696;13.002;2023-02-28T07:47:24;2.87;;;1.77;;
15071;SDS011;7635;56.696;13.002;2023-02-28T07:49:52;2.40;;;1.63;;
15071;SDS011;7635;56.696;13.002;2023-02-28T07:52:19;2.77;;;1.73;;
15071;SDS011;7635;56.696;13.002;2023-02-28T07:54:46;1.70;;;1.60;;
15071;SDS011;7635;56.696;13.002;2023-02-28T07:57:12;2.20;;;1.83;;
15071;SDS011;7635;56.696;13.002;2023-02-28T07:59:39;2.33;;;2.07;;
15071;SDS011;7635;56.696;13.002;2023-02-28T08:02:06;2.97;;;2.30;;
15071;SDS011;7635;56.696;13.002;2023-02-28T08:04:34;2.03;;;1.80;;
15071;SDS011;7635;56.696;13.002;2023-02-28T08:07:02;2.47;;;1.67;;
15071;SDS011;7635;56.696;13.002;2023-02-28T08:09:29;1.90;;;1.80;;
15071;SDS011;7635;56.696;13.002;2023-02-28T08:11:55;1.73;;;1.53;;
15071;SDS011;7635;56.696;13.002;2023-02-28T08:14:22;2.03;;;1.87;;
15071;SDS011;7635;56.696;13.002;2023-02-28T08:16:49;1.70;;;1.60;;
15071;SDS011;7635;56.696;13.002;2023-02-28T08:19:15;1.97;;;1.70;;
15071;SDS011;7635;56.696;13.002;2023-02-28T08:21:42;1.83;;;1.37;;
15071;SDS011;7635;56.696;13.002;2023-02-28T08:24:10;1.50;;;1.40;;
15071;SDS011;7635;56.696;13.002;2023-02-28T08:26:37;1.53;;;1.43;;
15071;SDS011;7635;56.696;13.002;2023-02-28T08:29:03;1.40;;;1.30;;
15071;SDS011;7635;56.696;13.002;2023-02-28T08:31:30;1.50;;;1.40;;
15071;SDS011;7635;56.696;13.002;2023-02-28T08:33:57;2.23;;;1.63;;
15071;SDS011;7635;56.696;13.002;2023-02-28T08:36:24;1.50;;;1.40;;
15071;SDS011;7635;56.696;13.002;2023-02-28T08:38:53;1.53;;;1.43;;
15071;SDS011;7635;56.696;13.002;2023-02-28T08:41:21;1.90;;;1.67;;
15071;SDS011;7635;56.696;13.002;2023-02-28T08:43:48;2.00;;;1.70;;
15071;SDS011;7635;56.696;13.002;2023-02-28T08:46:15;2.47;;;1.73;;
15071;SDS011;7635;56.696;13.002;2023-02-28T08:48:42;1.60;;;1.50;;
15071;SDS011;7635;56.696;13.002;2023-02-28T08:51:10;2.10;;;1.83;;
15071;SDS011;7635;56.696;13.002;2023-02-28T08:53:39;1.67;;;1.57;;
15071;SDS011;7635;56.696;13.002;2023-02-28T08:56:06;2.20;;;1.83;;
15071;SDS011;7635;56.696;13.002;2023-02-28T08:58:36;3.17;;;2.23;;
15071;SDS011;7635;56.696;13.002;2023-02-28T09:01:07;2.67;;;2.27;;
15071;SDS011;7635;56.696;13.002;2023-02-28T09:03:35;3.07;;;2.10;;
15071;SDS011;7635;56.696;13.002;2023-02-28T09:06:02;2.63;;;2.00;;
15071;SDS011;7635;56.696;13.002;2023-02-28T09:08:30;2.00;;;1.70;;
15071;SDS011;7635;56.696;13.002;2023-02-28T09:10:57;2.47;;;1.80;;
15071;SDS011;7635;56.696;13.002;2023-02-28T09:13:24;2.73;;;1.60;;
15071;SDS011;7635;56.696;13.002;2023-02-28T09:15:53;2.33;;;2.03;;
15071;SDS011;7635;56.696;13.002;2023-02-28T09:18:19;3.10;;;2.00;;
15071;SDS011;7635;56.696;13.002;2023-02-28T09:20:46;2.13;;;1.63;;
15071;SDS011;7635;56.696;13.002;2023-02-28T09:23:13;1.77;;;1.53;;
15071;SDS011;7635;56.696;13.002;2023-02-28T09:25:45;3.17;;;1.90;;
15071;SDS011;7635;56.696;13.002;2023-02-28T09:28:12;2.67;;;1.83;;
15071;SDS011;7635;56.696;13.002;2023-02-28T09:30:40;1.97;;;1.77;;
15071;SDS011;7635;56.696;13.002;2023-02-28T09:33:08;2.77;;;1.70;;
15071;SDS011;7635;56.696;13.002;2023-02-28T09:35:35;1.87;;;1.70;;
15071;SDS011;7635;56.696;13.002;2023-02-28T09:38:03;2.60;;;2.00;;
15071;SDS011;7635;56.696;13.002;2023-02-28T09:40:30;2.23;;;1.97;;
15071;SDS011;7635;56.696;13.002;2023-02-28T09:42:57;2.30;;;1.97;;
15071;SDS011;7635;56.696;13.002;2023-02-28T09:45:27;2.50;;;1.90;;
15071;SDS011;7635;56.696;13.002;2023-02-28T09:47:59;1.93;;;1.70;;
15071;SDS011;7635;56.696;13.002;2023-02-28T09:50:32;1.47;;;1.37;;
15071;SDS011;7635;56.696;13.002;2023-02-28T09:53:02;2.20;;;1.70;;
15071;SDS011;7635;56.696;13.002;2023-02-28T09:55:37;2.83;;;1.60;;
15071;SDS011;7635;56.696;13.002;2023-02-28T09:58:10;2.07;;;1.47;;
15071;SDS011;7635;56.696;13.002;2023-02-28T10:00:46;1.80;;;1.63;;
15071;SDS011;7635;56.696;13.002;2023-02-28T10:03:25;2.20;;;1.60;;
15071;SDS011;7635;56.696;13.002;2023-02-28T10:05:59;1.90;;;1.67;;
15071;SDS011;7635;56.696;13.002;2023-02-28T10:08:33;3.20;;;1.90;;
15071;SDS011;7635;56.696;13.002;2023-02-28T10:11:07;2.87;;;2.00;;
15071;SDS011;7635;56.696;13.002;2023-02-28T10:13:41;2.43;;;2.07;;
15071;SDS011;7635;56.696;13.002;2023-02-28T10:16:16;2.20;;;2.00;;
15071;SDS011;7635;56.696;13.002;2023-02-28T10:18:50;2.53;;;2.10;;
15071;SDS011;7635;56.696;13.002;2023-02-28T10:21:23;2.33;;;1.80;;
15071;SDS011;7635;56.696;13.002;2023-02-28T10:23:55;3.20;;;2.00;;
15071;SDS011;7635;56.696;13.002;2023-02-28T10:26:30;3.13;;;2.17;;
15071;SDS011;7635;56.696;13.002;2023-02-28T10:28:58;2.83;;;2.20;;
15071;SDS011;7635;56.696;13.002;2023-02-28T10:31:25;3.00;;;2.33;;
15071;SDS011;7635;56.696;13.002;2023-02-28T10:33:52;4.63;;;2.20;;
15071;SDS011;7635;56.696;13.002;2023-02-28T10:36:19;2.90;;;2.63;;
15071;SDS011;7635;56.696;13.002;2023-02-28T10:38:48;2.97;;;2.50;;
15071;SDS011;7635;56.696;13.002;2023-02-28T10:41:17;3.70;;;2.30;;
15071;SDS011;7635;56.696;13.002;2023-02-28T10:43:53;2.67;;;2.20;;
15071;SDS011;7635;56.696;13.002;2023-02-28T10:46:39;3.87;;;2.60;;
15071;SDS011;7635;56.696;13.002;2023-02-28T10:49:12;4.33;;;2.43;;
15071;SDS011;7635;56.696;13.002;2023-02-28T10:51:40;4.40;;;2.50;;
15071;SDS011;7635;56.696;13.002;2023-02-28T10:54:15;2.97;;;2.20;;
15071;SDS011;7635;56.696;13.002;2023-02-28T10:56:45;4.33;;;2.47;;
15071;SDS011;7635;56.696;13.002;2023-02-28T10:59:22;4.90;;;2.70;;
15071;SDS011;7635;56.696;13.002;2023-02-28T11:01:53;3.80;;;2.40;;
15071;SDS011;7635;56.696;13.002;2023-02-28T11:04:23;4.27;;;2.53;;
15071;SDS011;7635;56.696;13.002;2023-02-28T11:07:01;3.13;;;2.13;;
15071;SDS011;7635;56.696;13.002;2023-02-28T11:09:33;5.10;;;2.40;;
15071;SDS011;7635;56.696;13.002;2023-02-28T11:12:01;3.53;;;2.50;;
15071;SDS011;7635;56.696;13.002;2023-02-28T11:14:31;4.87;;;2.90;;
15071;SDS011;7635;56.696;13.002;2023-02-28T11:17:00;2.37;;;2.13;;
15071;SDS011;7635;56.696;13.002;2023-02-28T11:19:40;3.67;;;2.53;;
15071;SDS011;7635;56.696;13.002;2023-02-28T11:22:15;4.63;;;2.73;;
15071;SDS011;7635;56.696;13.002;2023-02-28T11:24:46;5.53;;;2.90;;
15071;SDS011;7635;56.696;13.002;2023-02-28T11:33:00;5.37;;;3.07;;
15071;SDS011;7635;56.696;13.002;2023-02-28T11:35:28;4.97;;;2.60;;
15071;SDS011;7635;56.696;13.002;2023-02-28T11:37:59;4.40;;;2.60;;
15071;SDS011;7635;56.696;13.002;2023-02-28T11:40:30;4.17;;;2.67;;
15071;SDS011;7635;56.696;13.002;2023-02-28T11:43:06;3.57;;;2.50;;
15071;SDS011;7635;56.696;13.002;2023-02-28T11:45:49;4.43;;;2.77;;
15071;SDS011;7635;56.696;13.002;2023-02-28T11:48:31;7.27;;;3.00;;
15071;SDS011;7635;56.696;13.002;2023-02-28T11:51:06;7.00;;;2.73;;
15071;SDS011;7635;56.696;13.002;2023-02-28T11:56:44;4.83;;;3.07;;
15071;SDS011;7635;56.696;13.002;2023-02-28T11:59:22;5.00;;;2.60;;
15071;SDS011;7635;56.696;13.002;2023-02-28T12:02:20;5.50;;;2.70;;
15071;SDS011;7635;56.696;13.002;2023-02-28T12:04:56;5.20;;;3.13;;
15071;SDS011;7635;56.696;13.002;2023-02-28T12:07:32;4.40;;;2.67;;
15071;SDS011;7635;56.696;13.002;2023-02-28T12:10:06;4.03;;;2.40;;
15071;SDS011;7635;56.696;13.002;2023-02-28T12:12:46;6.43;;;2.90;;
15071;SDS011;7635;56.696;13.002;2023-02-28T12:15:33;3.93;;;2.80;;
15071;SDS011;7635;56.696;13.002;2023-02-28T12:18:17;4.53;;;2.83;;
15071;SDS011;7635;56.696;13.002;2023-02-28T12:21:04;3.67;;;2.93;;
15071;SDS011;7635;56.696;13.002;2023-02-28T12:23:57;6.57;;;3.67;;
15071;SDS011;7635;56.696;13.002;2023-02-28T12:26:44;6.67;;;3.50;;
15071;SDS011;7635;56.696;13.002;2023-02-28T12:29:14;4.00;;;3.07;;
15071;SDS011;7635;56.696;13.002;2023-02-28T12:31:45;3.10;;;2.67;;
15071;SDS011;7635;56.696;13.002;2023-02-28T12:34:16;4.70;;;3.07;;
15071;SDS011;7635;56.696;13.002;2023-02-28T12:36:46;4.33;;;3.03;;
15071;SDS011;7635;56.696;13.002;2023-02-28T12:39:15;3.70;;;2.63;;
15071;SDS011;7635;56.696;13.002;2023-02-28T12:41:46;3.57;;;2.60;;
15071;SDS011;7635;56.696;13.002;2023-02-28T12:44:17;4.10;;;2.50;;
15071;SDS011;7635;56.696;13.002;2023-02-28T12:46:47;3.53;;;2.53;;
15071;SDS011;7635;56.696;13.002;2023-02-28T12:49:17;4.37;;;2.80;;
15071;SDS011;7635;56.696;13.002;2023-02-28T12:51:49;4.27;;;2.67;;
15071;SDS011;7635;56.696;13.002;2023-02-28T12:54:19;2.80;;;2.30;;
15071;SDS011;7635;56.696;13.002;2023-02-28T12:56:53;2.50;;;2.27;;
15071;SDS011;7635;56.696;13.002;2023-02-28T12:59:27;3.03;;;2.10;;
15071;SDS011;7635;56.696;13.002;2023-02-28T13:05:14;3.03;;;1.70;;
15071;SDS011;7635;56.696;13.002;2023-02-28T13:08:02;2.40;;;1.90;;
15071;SDS011;7635;56.696;13.002;2023-02-28T13:10:38;2.43;;;1.90;;
15071;SDS011;7635;56.696;13.002;2023-02-28T13:13:13;2.77;;;2.00;;
15071;SDS011;7635;56.696;13.002;2023-02-28T13:15:57;2.33;;;1.90;;
15071;SDS011;7635;56.696;13.002;2023-02-28T13:18:30;2.87;;;2.20;;
15071;SDS011;7635;56.696;13.002;2023-02-28T13:21:02;2.27;;;1.80;;
15071;SDS011;7635;56.696;13.002;2023-02-28T13:23:56;1.87;;;1.70;;
15071;SDS011;7635;56.696;13.002;2023-02-28T13:29:31;2.43;;;1.70;;
15071;SDS011;7635;56.696;13.002;2023-02-28T13:32:27;3.00;;;1.80;;
15071;SDS011;7635;56.696;13.002;2023-02-28T13:44:02;1.43;;;1.33;;
15071;SDS011;7635;56.696;13.002;2023-02-28T13:46:31;1.30;;;1.20;;
15071;SDS011;7635;56.696;13.002;2023-02-28T13:51:51;1.40;;;1.30;;
15071;SDS011;7635;56.696;13.002;2023-02-28T13:54:28;1.50;;;1.40;;
15071;SDS011;7635;56.696;13.002;2023-02-28T13:57:12;3.80;;;1.93;;
15071;SDS011;7635;56.696;13.002;2023-02-28T13:59:50;2.50;;;1.77;;
15071;SDS011;7635;56.696;13.002;2023-02-28T14:02:36;4.60;;;2.17;;
15071;SDS011;7635;56.696;13.002;2023-02-28T14:05:16;2.80;;;1.90;;
15071;SDS011;7635;56.696;13.002;2023-02-28T14:07:45;1.97;;;1.60;;
15071;SDS011;7635;56.696;13.002;2023-02-28T14:10:22;1.53;;;1.30;;
15071;SDS011;7635;56.696;13.002;2023-02-28T14:12:53;1.90;;;1.80;;
15071;SDS011;7635;56.696;13.002;2023-02-28T14:15:27;2.60;;;1.87;;
15071;SDS011;7635;56.696;13.002;2023-02-28T14:18:01;1.73;;;1.30;;
15071;SDS011;7635;56.696;13.002;2023-02-28T14:20:32;2.13;;;1.70;;
15071;SDS011;7635;56.696;13.002;2023-02-28T14:23:02;1.73;;;1.53;;
15071;SDS011;7635;56.696;13.002;2023-02-28T14:25:36;2.17;;;1.40;;
15071;SDS011;7635;56.696;13.002;2023-02-28T14:28:11;1.40;;;1.30;;
15071;SDS011;7635;56.696;13.002;2023-02-28T14:30:56;1.60;;;1.50;;
15071;SDS011;7635;56.696;13.002;2023-02-28T14:33:31;1.57;;;1.47;;
15071;SDS011;7635;56.696;13.002;2023-02-28T14:36:16;1.97;;;1.60;;
15071;SDS011;7635;56.696;13.002;2023-02-28T14:38:49;2.00;;;1.40;;
15071;SDS011;7635;56.696;13.002;2023-02-28T14:41:20;1.40;;;1.30;;
15071;SDS011;7635;56.696;13.002;2023-02-28T14:43:53;2.10;;;1.60;;
15071;SDS011;7635;56.696;13.002;2023-02-28T14:46:22;2.43;;;1.43;;
15071;SDS011;7635;56.696;13.002;2023-02-28T14:48:51;1.53;;;1.37;;
15071;SDS011;7635;56.696;13.002;2023-02-28T14:51:20;2.67;;;1.60;;
15071;SDS011;7635;56.696;13.002;2023-02-28T14:53:49;2.73;;;1.67;;
15071;SDS011;7635;56.696;13.002;2023-02-28T14:56:22;2.83;;;2.00;;
15071;SDS011;7635;56.696;13.002;2023-02-28T14:58:52;1.70;;;1.60;;
15071;SDS011;7635;56.696;13.002;2023-02-28T15:01:20;2.03;;;1.70;;
15071;SDS011;7635;56.696;13.002;2023-02-28T15:03:49;2.63;;;1.70;;
15071;SDS011;7635;56.696;13.002;2023-02-28T15:06:25;1.80;;;1.63;;
15071;SDS011;7635;56.696;13.002;2023-02-28T15:09:06;1.93;;;1.40;;
15071;SDS011;7635;56.696;13.002;2023-02-28T15:11:33;1.90;;;1.70;;
15071;SDS011;7635;56.696;13.002;2023-02-28T15:14:02;2.10;;;1.47;;
15071;SDS011;7635;56.696;13.002;2023-02-28T15:16:30;2.60;;;1.70;;
15071;SDS011;7635;56.696;13.002;2023-02-28T15:19:00;1.90;;;1.70;;
15071;SDS011;7635;56.696;13.002;2023-02-28T15:21:33;2.50;;;1.90;;
15071;SDS011;7635;56.696;13.002;2023-02-28T15:24:03;1.60;;;1.50;;
15071;SDS011;7635;56.696;13.002;2023-02-28T15:26:32;1.93;;;1.70;;
15071;SDS011;7635;56.696;13.002;2023-02-28T15:29:04;2.23;;;1.77;;
15071;SDS011;7635;56.696;13.002;2023-02-28T15:31:33;2.00;;;1.80;;
15071;SDS011;7635;56.696;13.002;2023-02-28T15:34:02;1.60;;;1.50;;
15071;SDS011;7635;56.696;13.002;2023-02-28T15:36:32;3.50;;;1.90;;
15071;SDS011;7635;56.696;13.002;2023-02-28T15:39:02;2.23;;;1.80;;
15071;SDS011;7635;56.696;13.002;2023-02-28T15:41:30;1.73;;;1.63;;
15071;SDS011;7635;56.696;13.002;2023-02-28T15:44:24;1.40;;;1.30;;
15071;SDS011;7635;56.696;13.002;2023-02-28T15:46:55;2.90;;;1.57;;